sensor_id;sensor_type;location;lat;lon;timestamp;P1;P2;P0
27143;PMS1003;14672;50.250;8.312;2024-01-27T00:01:50;20.25;13.00;5.00
27143;PMS1003;14672;50.250;8.312;2024-01-27T00:04:16;10.00;10.00;3.00
27143;PMS1003;14672;50.250;8.312;2024-01-27T00:06:42;14.00;12.33;5.00
27143;PMS1003;14672;50.250;8.312;2024-01-27T00:09:08;15.00;15.00;5.00
27143;PMS1003;14672;50.250;8.312;2024-01-27T00:11:33;11.00;11.00;3.00
27143;PMS1003;14672;50.250;8.312;2024-01-27T00:13:59;17.33;17.33;7.00
27143;PMS1003;14672;50.250;8.312;2024-01-27T00:16:25;11.67;9.67;3.00
27143;PMS1003;14672;50.250;8.312;2024-01-27T00:18:51;12.33;11.67;5.00
27143;PMS1003;14672;50.250;8.312;2024-01-27T00:21:16;15.00;11.00;3.00
27143;PMS1003;14672;50.250;8.312;2024-01-27T00:23:42;15.33;14.33;5.00
27143;PMS1003;14672;50.250;8.312;2024-01-27T00:26:08;17.25;14.00;3.00
27143;PMS1003;14672;50.250;8.312;2024-01-27T00:28:34;15.00;15.00;5.00
27143;PMS1003;14672;50.250;8.312;2024-01-27T00:31:00;10.33;10.33;3.00
27143;PMS1003;14672;50.250;8.312;2024-01-27T00:33:26;15.00;13.00;3.00
27143;PMS1003;14672;50.250;8.312;2024-01-27T00:35:51;11.00;11.00;1.00
27143;PMS1003;14672;50.250;8.312;2024-01-27T00:38:17;13.00;11.00;1.00
27143;PMS1003;14672;50.250;8.312;2024-01-27T00:40:43;11.00;11.00;3.00
27143;PMS1003;14672;50.250;8.312;2024-01-27T00:43:09;16.33;11.00;3.00
27143;PMS1003;14672;50.250;8.312;2024-01-27T00:45:35;12.00;11.00;3.50
27143;PMS1003;14672;50.250;8.312;2024-01-27T00:48:00;9.67;9.67;2.33
27143;PMS1003;14672;50.250;8.312;2024-01-27T00:50:26;14.33;13.00;3.00
27143;PMS1003;14672;50.250;8.312;2024-01-27T00:52:55;19.00;18.25;3.00
27143;PMS1003;14672;50.250;8.312;2024-01-27T00:55:21;10.33;10.33;3.00
27143;PMS1003;14672;50.250;8.312;2024-01-27T00:57:47;13.67;11.00;3.00
27143;PMS1003;14672;50.250;8.312;2024-01-27T01:00:12;17.00;15.00;7.00
27143;PMS1003;14672;50.250;8.312;2024-01-27T01:02:39;15.00;11.50;2.50
27143;PMS1003;14672;50.250;8.312;2024-01-27T01:05:05;7.50;7.50;1.50
27143;PMS1003;14672;50.250;8.312;2024-01-27T01:07:32;16.00;13.00;6.50
27143;PMS1003;14672;50.250;8.312;2024-01-27T01:09:58;15.00;15.00;3.00
27143;PMS1003;14672;50.250;8.312;2024-01-27T01:12:24;13.00;13.00;3.00
27143;PMS1003;14672;50.250;8.312;2024-01-27T01:14:53;16.25;13.00;3.00
27143;PMS1003;14672;50.250;8.312;2024-01-27T01:17:19;15.50;13.50;4.50
27143;PMS1003;14672;50.250;8.312;2024-01-27T01:19:45;11.00;11.00;3.00
27143;PMS1003;14672;50.250;8.312;2024-01-27T01:22:11;9.67;9.00;3.00
27143;PMS1003;14672;50.250;8.312;2024-01-27T01:24:36;9.67;8.33;1.00
27143;PMS1003;14672;50.250;8.312;2024-01-27T01:27:02;12.33;12.33;4.33
27143;PMS1003;14672;50.250;8.312;2024-01-27T01:29:29;10.50;10.50;1.00
27143;PMS1003;14672;50.250;8.312;2024-01-27T01:31:54;21.33;12.33;3.00
27143;PMS1003;14672;50.250;8.312;2024-01-27T01:34:20;10.50;9.00;2.50
27143;PMS1003;14672;50.250;8.312;2024-01-27T01:36:46;9.67;9.00;2.33
27143;PMS1003;14672;50.250;8.312;2024-01-27T01:39:13;10.50;9.00;3.00
27143;PMS1003;14672;50.250;8.312;2024-01-27T01:41:39;16.00;12.50;5.00
27143;PMS1003;14672;50.250;8.312;2024-01-27T01:44:06;14.00;10.50;2.00
27143;PMS1003;14672;50.250;8.312;2024-01-27T01:46:32;15.00;8.50;1.00
27143;PMS1003;14672;50.250;8.312;2024-01-27T01:48:59;12.00;10.50;3.00
27143;PMS1003;14672;50.250;8.312;2024-01-27T01:51:28;11.00;9.50;3.00
27143;PMS1003;14672;50.250;8.312;2024-01-27T01:53:56;9.50;9.50;3.00
27143;PMS1003;14672;50.250;8.312;2024-01-27T01:56:23;9.00;8.50;3.00
27143;PMS1003;14672;50.250;8.312;2024-01-27T01:58:50;9.00;9.00;3.00
27143;PMS1003;14672;50.250;8.312;2024-01-27T02:01:16;15.33;9.00;1.00
27143;PMS1003;14672;50.250;8.312;2024-01-27T02:03:58;11.25;10.25;3.00
27143;PMS1003;14672;50.250;8.312;2024-01-27T02:06:24;13.50;12.75;4.00
27143;PMS1003;14672;50.250;8.312;2024-01-27T02:08:53;12.25;11.75;4.50
27143;PMS1003;14672;50.250;8.312;2024-01-27T02:11:19;11.67;11.33;5.00
27143;PMS1003;14672;50.250;8.312;2024-01-27T02:13:44;19.00;15.00;5.00
27143;PMS1003;14672;50.250;8.312;2024-01-27T02:16:12;7.75;7.25;1.00
27143;PMS1003;14672;50.250;8.312;2024-01-27T02:18:37;12.00;11.00;3.67
27143;PMS1003;14672;50.250;8.312;2024-01-27T02:21:03;12.00;10.67;1.67
27143;PMS1003;14672;50.250;8.312;2024-01-27T02:23:29;13.00;9.67;2.33
27143;PMS1003;14672;50.250;8.312;2024-01-27T02:25:55;9.33;9.33;4.00
27143;PMS1003;14672;50.250;8.312;2024-01-27T02:28:23;11.50;10.50;3.75
27143;PMS1003;14672;50.250;8.312;2024-01-27T02:30:50;9.50;8.50;2.75
27143;PMS1003;14672;50.250;8.312;2024-01-27T02:33:16;10.00;10.00;2.00
27143;PMS1003;14672;50.250;8.312;2024-01-27T02:35:41;10.00;10.00;4.67
27143;PMS1003;14672;50.250;8.312;2024-01-27T02:38:08;9.00;9.00;4.25
27143;PMS1003;14672;50.250;8.312;2024-01-27T02:40:34;12.67;11.33;4.00
27143;PMS1003;14672;50.250;8.312;2024-01-27T02:43:00;16.00;12.00;4.00
27143;PMS1003;14672;50.250;8.312;2024-01-27T02:45:29;10.50;9.00;2.00
27143;PMS1003;14672;50.250;8.312;2024-01-27T02:47:54;6.67;6.67;2.67
27143;PMS1003;14672;50.250;8.312;2024-01-27T02:50:20;12.00;11.33;4.00
27143;PMS1003;14672;50.250;8.312;2024-01-27T02:52:46;12.00;10.00;2.00
27143;PMS1003;14672;50.250;8.312;2024-01-27T02:55:12;12.67;10.67;2.00
27143;PMS1003;14672;50.250;8.312;2024-01-27T02:57:37;10.00;10.00;4.00
27143;PMS1003;14672;50.250;8.312;2024-01-27T03:00:05;10.50;10.50;4.00
27143;PMS1003;14672;50.250;8.312;2024-01-27T03:02:31;10.00;10.00;4.00
27143;PMS1003;14672;50.250;8.312;2024-01-27T03:04:57;10.00;10.00;4.00
27143;PMS1003;14672;50.250;8.312;2024-01-27T03:07:23;9.33;9.33;2.00
27143;PMS1003;14672;50.250;8.312;2024-01-27T03:09:49;10.00;10.00;4.00
27143;PMS1003;14672;50.250;8.312;2024-01-27T03:12:14;8.67;8.67;4.00
27143;PMS1003;14672;50.250;8.312;2024-01-27T03:14:41;14.67;13.33;6.00
27143;PMS1003;14672;50.250;8.312;2024-01-27T03:17:07;8.00;8.00;2.00
27143;PMS1003;14672;50.250;8.312;2024-01-27T03:19:33;12.00;12.00;4.00
27143;PMS1003;14672;50.250;8.312;2024-01-27T03:21:58;18.00;11.33;2.00
27143;PMS1003;14672;50.250;8.312;2024-01-27T03:24:24;11.33;11.33;2.00
27143;PMS1003;14672;50.250;8.312;2024-01-27T03:26:50;10.00;10.00;3.33
27143;PMS1003;14672;50.250;8.312;2024-01-27T03:29:16;8.00;6.00;2.00
27143;PMS1003;14672;50.250;8.312;2024-01-27T03:31:42;10.00;10.00;2.00
27143;PMS1003;14672;50.250;8.312;2024-01-27T03:34:07;12.00;12.00;4.00
27143;PMS1003;14672;50.250;8.312;2024-01-27T03:36:33;10.00;10.00;4.00
27143;PMS1003;14672;50.250;8.312;2024-01-27T03:38:59;8.00;8.00;1.33
27143;PMS1003;14672;50.250;8.312;2024-01-27T03:41:25;6.00;6.00;2.00
27143;PMS1003;14672;50.250;8.312;2024-01-27T03:43:50;12.00;12.00;2.00
27143;PMS1003;14672;50.250;8.312;2024-01-27T03:46:16;10.00;8.67;2.00
27143;PMS1003;14672;50.250;8.312;2024-01-27T03:48:42;8.67;8.67;3.33
27143;PMS1003;14672;50.250;8.312;2024-01-27T03:51:08;10.00;7.33;2.00
27143;PMS1003;14672;50.250;8.312;2024-01-27T03:53:33;10.67;10.67;2.00
27143;PMS1003;14672;50.250;8.312;2024-01-27T03:55:59;10.00;10.00;2.00
27143;PMS1003;14672;50.250;8.312;2024-01-27T03:58:29;10.50;9.00;2.00
27143;PMS1003;14672;50.250;8.312;2024-01-27T04:00:58;12.00;12.00;4.00
27143;PMS1003;14672;50.250;8.312;2024-01-27T04:03:24;9.50;8.50;2.00
27143;PMS1003;14672;50.250;8.312;2024-01-27T04:05:50;12.00;12.00;2.00
27143;PMS1003;14672;50.250;8.312;2024-01-27T04:08:15;8.00;8.00;2.00
27143;PMS1003;14672;50.250;8.312;2024-01-27T04:10:41;10.00;10.00;4.00
27143;PMS1003;14672;50.250;8.312;2024-01-27T04:13:07;12.67;12.00;4.00
27143;PMS1003;14672;50.250;8.312;2024-01-27T04:15:33;8.00;8.00;2.00
27143;PMS1003;14672;50.250;8.312;2024-01-27T04:18:06;10.00;8.00;2.00
27143;PMS1003;14672;50.250;8.312;2024-01-27T04:20:33;8.00;8.00;2.00
27143;PMS1003;14672;50.250;8.312;2024-01-27T04:23:00;12.00;9.00;1.50
27143;PMS1003;14672;50.250;8.312;2024-01-27T04:25:26;6.50;6.50;1.50
27143;PMS1003;14672;50.250;8.312;2024-01-27T04:27:52;10.00;8.00;2.00
27143;PMS1003;14672;50.250;8.312;2024-01-27T04:30:18;7.50;7.50;1.50
27143;PMS1003;14672;50.250;8.312;2024-01-27T04:32:44;8.00;8.00;2.00
27143;PMS1003;14672;50.250;8.312;2024-01-27T04:35:10;14.67;9.33;2.00
27143;PMS1003;14672;50.250;8.312;2024-01-27T04:37:36;8.00;8.00;2.00
27143;PMS1003;14672;50.250;8.312;2024-01-27T04:40:06;6.50;6.50;2.00
27143;PMS1003;14672;50.250;8.312;2024-01-27T04:42:33;14.00;12.00;2.50
27143;PMS1003;14672;50.250;8.312;2024-01-27T04:44:59;11.50;9.50;3.00
27143;PMS1003;14672;50.250;8.312;2024-01-27T04:47:25;14.50;8.00;2.00
27143;PMS1003;14672;50.250;8.312;2024-01-27T04:49:51;11.33;10.00;2.00
27143;PMS1003;14672;50.250;8.312;2024-01-27T04:52:17;10.00;9.33;3.33
27143;PMS1003;14672;50.250;8.312;2024-01-27T04:54:42;16.00;13.33;2.00
27143;PMS1003;14672;50.250;8.312;2024-01-27T04:57:08;6.00;6.00;2.00
27143;PMS1003;14672;50.250;8.312;2024-01-27T04:59:35;9.00;9.00;2.00
27143;PMS1003;14672;50.250;8.312;2024-01-27T05:02:01;10.50;9.00;2.00
27143;PMS1003;14672;50.250;8.312;2024-01-27T05:04:26;8.67;8.67;2.00
27143;PMS1003;14672;50.250;8.312;2024-01-27T05:06:52;9.33;8.00;2.00
27143;PMS1003;14672;50.250;8.312;2024-01-27T05:09:18;10.00;10.00;4.00
27143;PMS1003;14672;50.250;8.312;2024-01-27T05:11:44;8.00;8.00;2.00
27143;PMS1003;14672;50.250;8.312;2024-01-27T05:14:10;10.00;10.00;2.00
27143;PMS1003;14672;50.250;8.312;2024-01-27T05:16:36;7.33;7.33;1.33
27143;PMS1003;14672;50.250;8.312;2024-01-27T05:19:02;13.33;10.00;2.00
27143;PMS1003;14672;50.250;8.312;2024-01-27T05:21:28;13.33;10.00;4.00
27143;PMS1003;14672;50.250;8.312;2024-01-27T05:23:53;9.33;9.33;2.00
27143;PMS1003;14672;50.250;8.312;2024-01-27T05:26:20;8.00;7.50;2.00
27143;PMS1003;14672;50.250;8.312;2024-01-27T05:28:46;12.00;10.50;2.00
27143;PMS1003;14672;50.250;8.312;2024-01-27T05:31:12;10.00;10.00;4.00
27143;PMS1003;14672;50.250;8.312;2024-01-27T05:33:38;14.00;11.50;4.00
27143;PMS1003;14672;50.250;8.312;2024-01-27T05:36:07;11.00;10.00;2.00
27143;PMS1003;14672;50.250;8.312;2024-01-27T05:38:32;11.33;10.00;4.00
27143;PMS1003;14672;50.250;8.312;2024-01-27T05:41:01;10.00;10.00;4.00
27143;PMS1003;14672;50.250;8.312;2024-01-27T05:43:27;10.50;10.50;3.00
27143;PMS1003;14672;50.250;8.312;2024-01-27T05:45:53;11.33;8.67;2.67
27143;PMS1003;14672;50.250;8.312;2024-01-27T05:48:22;10.00;10.00;2.00
27143;PMS1003;14672;50.250;8.312;2024-01-27T05:50:57;15.33;12.00;2.00
27143;PMS1003;14672;50.250;8.312;2024-01-27T05:53:24;13.00;10.00;3.50
27143;PMS1003;14672;50.250;8.312;2024-01-27T05:55:51;11.00;8.50;3.00
27143;PMS1003;14672;50.250;8.312;2024-01-27T05:58:18;6.00;6.00;2.00
27143;PMS1003;14672;50.250;8.312;2024-01-27T06:00:46;8.00;8.00;2.00
27143;PMS1003;14672;50.250;8.312;2024-01-27T06:03:13;9.00;8.00;2.00
27143;PMS1003;14672;50.250;8.312;2024-01-27T06:05:40;8.00;8.00;2.00
27143;PMS1003;14672;50.250;8.312;2024-01-27T06:08:07;8.00;8.00;2.00
27143;PMS1003;14672;50.250;8.312;2024-01-27T06:10:33;13.50;12.00;5.50
27143;PMS1003;14672;50.250;8.312;2024-01-27T06:13:01;14.00;14.00;6.50
27143;PMS1003;14672;50.250;8.312;2024-01-27T06:15:28;16.00;13.00;5.50
27143;PMS1003;14672;50.250;8.312;2024-01-27T06:17:54;13.33;12.00;4.00
27143;PMS1003;14672;50.250;8.312;2024-01-27T06:20:19;12.67;12.67;5.33
27143;PMS1003;14672;50.250;8.312;2024-01-27T06:22:45;16.00;14.00;6.00
27143;PMS1003;14672;50.250;8.312;2024-01-27T06:25:11;18.67;14.00;4.00
27143;PMS1003;14672;50.250;8.312;2024-01-27T06:27:39;13.00;12.00;5.00
27143;PMS1003;14672;50.250;8.312;2024-01-27T06:30:08;8.00;8.00;2.00
27143;PMS1003;14672;50.250;8.312;2024-01-27T06:32:35;10.50;9.00;3.00
27143;PMS1003;14672;50.250;8.312;2024-01-27T06:35:01;11.50;10.00;3.00
27143;PMS1003;14672;50.250;8.312;2024-01-27T06:37:28;11.50;10.50;4.00
27143;PMS1003;14672;50.250;8.312;2024-01-27T06:39:54;12.67;12.67;4.00
27143;PMS1003;14672;50.250;8.312;2024-01-27T06:42:20;16.00;10.00;3.33
27143;PMS1003;14672;50.250;8.312;2024-01-27T06:44:46;18.00;12.67;4.00
27143;PMS1003;14672;50.250;8.312;2024-01-27T06:47:11;16.00;12.00;4.00
27143;PMS1003;14672;50.250;8.312;2024-01-27T06:49:37;12.67;11.33;4.00
27143;PMS1003;14672;50.250;8.312;2024-01-27T06:52:03;12.67;12.67;4.67
27143;PMS1003;14672;50.250;8.312;2024-01-27T06:54:29;12.50;12.00;4.00
27143;PMS1003;14672;50.250;8.312;2024-01-27T06:56:54;13.33;12.00;2.67
27143;PMS1003;14672;50.250;8.312;2024-01-27T06:59:20;19.33;14.67;6.00
27143;PMS1003;14672;50.250;8.312;2024-01-27T07:01:46;9.33;9.33;4.00
27143;PMS1003;14672;50.250;8.312;2024-01-27T07:04:16;12.50;12.00;4.50
27143;PMS1003;14672;50.250;8.312;2024-01-27T07:06:43;19.50;16.50;7.50
27143;PMS1003;14672;50.250;8.312;2024-01-27T07:09:09;10.50;10.50;4.50
27143;PMS1003;14672;50.250;8.312;2024-01-27T07:11:36;16.00;14.00;5.50
27143;PMS1003;14672;50.250;8.312;2024-01-27T07:14:03;11.50;11.50;4.00
27143;PMS1003;14672;50.250;8.312;2024-01-27T07:16:31;12.50;10.00;3.00
27143;PMS1003;14672;50.250;8.312;2024-01-27T07:18:59;12.00;10.00;2.00
27143;PMS1003;14672;50.250;8.312;2024-01-27T07:21:24;12.00;12.00;4.00
27143;PMS1003;14672;50.250;8.312;2024-01-27T07:23:51;16.00;10.00;2.00
27143;PMS1003;14672;50.250;8.312;2024-01-27T07:26:18;14.00;12.00;4.00
27143;PMS1003;14672;50.250;8.312;2024-01-27T07:28:44;13.33;10.00;2.00
27143;PMS1003;14672;50.250;8.312;2024-01-27T07:31:10;22.67;13.33;4.00
27143;PMS1003;14672;50.250;8.312;2024-01-27T07:33:36;11.50;11.50;4.00
27143;PMS1003;14672;50.250;8.312;2024-01-27T07:36:03;19.00;15.00;6.00
27143;PMS1003;14672;50.250;8.312;2024-01-27T07:38:29;14.00;13.00;2.50
27143;PMS1003;14672;50.250;8.312;2024-01-27T07:40:55;18.00;16.00;4.67
27143;PMS1003;14672;50.250;8.312;2024-01-27T07:43:21;16.00;16.00;4.00
27143;PMS1003;14672;50.250;8.312;2024-01-27T07:45:47;12.00;10.67;4.00
27143;PMS1003;14672;50.250;8.312;2024-01-27T07:48:12;13.33;12.00;4.00
27143;PMS1003;14672;50.250;8.312;2024-01-27T07:50:38;14.00;12.00;3.33
27143;PMS1003;14672;50.250;8.312;2024-01-27T07:53:04;11.33;11.33;4.00
27143;PMS1003;14672;50.250;8.312;2024-01-27T07:55:31;17.00;14.00;6.00
27143;PMS1003;14672;50.250;8.312;2024-01-27T07:57:56;19.33;18.67;8.67
27143;PMS1003;14672;50.250;8.312;2024-01-27T08:00:23;22.00;19.50;8.00
27143;PMS1003;14672;50.250;8.312;2024-01-27T08:02:48;14.00;14.00;8.00
27143;PMS1003;14672;50.250;8.312;2024-01-27T08:05:14;15.33;14.00;6.67
27143;PMS1003;14672;50.250;8.312;2024-01-27T08:07:40;16.67;15.33;8.00
27143;PMS1003;14672;50.250;8.312;2024-01-27T08:10:06;18.00;15.33;6.67
27143;PMS1003;14672;50.250;8.312;2024-01-27T08:12:36;14.50;14.50;6.00
27143;PMS1003;14672;50.250;8.312;2024-01-27T08:15:02;18.50;18.50;8.00
27143;PMS1003;14672;50.250;8.312;2024-01-27T08:17:28;15.00;14.50;6.50
27143;PMS1003;14672;50.250;8.312;2024-01-27T08:19:54;18.00;16.00;6.67
27143;PMS1003;14672;50.250;8.312;2024-01-27T08:22:20;18.67;15.33;6.00
27143;PMS1003;14672;50.250;8.312;2024-01-27T08:24:45;14.67;12.67;6.00
27143;PMS1003;14672;50.250;8.312;2024-01-27T08:27:11;18.00;14.00;6.00
27143;PMS1003;14672;50.250;8.312;2024-01-27T08:29:37;14.67;12.00;6.00
27143;PMS1003;14672;50.250;8.312;2024-01-27T08:32:03;28.67;20.00;10.00
27143;PMS1003;14672;50.250;8.312;2024-01-27T08:34:29;17.00;16.50;8.00
27143;PMS1003;14672;50.250;8.312;2024-01-27T08:37:00;16.67;14.67;6.00
27143;PMS1003;14672;50.250;8.312;2024-01-27T08:39:27;31.00;27.50;15.00
27143;PMS1003;14672;50.250;8.312;2024-01-27T08:41:53;26.67;22.00;10.00
27143;PMS1003;14672;50.250;8.312;2024-01-27T08:44:18;26.00;26.00;14.00
27143;PMS1003;14672;50.250;8.312;2024-01-27T08:46:45;25.50;21.00;8.50
27143;PMS1003;14672;50.250;8.312;2024-01-27T08:49:11;28.00;24.00;12.00
27143;PMS1003;14672;50.250;8.312;2024-01-27T08:51:36;20.67;16.67;7.33
27143;PMS1003;14672;50.250;8.312;2024-01-27T08:54:02;28.00;22.00;9.33
27143;PMS1003;14672;50.250;8.312;2024-01-27T08:56:28;34.67;30.00;13.33
27143;PMS1003;14672;50.250;8.312;2024-01-27T08:58:54;45.50;43.50;22.50
27143;PMS1003;14672;50.250;8.312;2024-01-27T09:01:20;52.00;46.67;24.67
27143;PMS1003;14672;50.250;8.312;2024-01-27T09:03:46;46.67;42.00;22.00
27143;PMS1003;14672;50.250;8.312;2024-01-27T09:06:11;40.67;34.67;19.33
27143;PMS1003;14672;50.250;8.312;2024-01-27T09:08:37;36.00;30.00;13.33
27143;PMS1003;14672;50.250;8.312;2024-01-27T09:11:03;32.67;30.00;18.00
27143;PMS1003;14672;50.250;8.312;2024-01-27T09:13:29;34.00;34.00;18.50
27143;PMS1003;14672;50.250;8.312;2024-01-27T09:15:56;33.50;32.00;17.00
27143;PMS1003;14672;50.250;8.312;2024-01-27T09:18:23;31.75;25.25;12.75
27143;PMS1003;14672;50.250;8.312;2024-01-27T09:20:49;27.00;22.50;11.00
27143;PMS1003;14672;50.250;8.312;2024-01-27T09:23:15;23.67;19.67;7.00
27143;PMS1003;14672;50.250;8.312;2024-01-27T09:25:41;19.67;18.00;7.67
27143;PMS1003;14672;50.250;8.312;2024-01-27T09:28:07;17.67;16.00;8.00
27143;PMS1003;14672;50.250;8.312;2024-01-27T09:30:32;16.67;16.67;8.00
27143;PMS1003;14672;50.250;8.312;2024-01-27T09:32:58;15.67;15.00;7.67
27143;PMS1003;14672;50.250;8.312;2024-01-27T09:35:24;17.00;16.00;6.67
27143;PMS1003;14672;50.250;8.312;2024-01-27T09:37:49;21.00;17.00;7.33
27143;PMS1003;14672;50.250;8.312;2024-01-27T09:40:16;19.50;18.75;9.00
27143;PMS1003;14672;50.250;8.312;2024-01-27T09:42:44;18.25;18.25;8.00
27143;PMS1003;14672;50.250;8.312;2024-01-27T09:45:18;34.75;34.00;17.75
27143;PMS1003;14672;50.250;8.312;2024-01-27T09:47:47;33.75;30.00;14.00
27143;PMS1003;14672;50.250;8.312;2024-01-27T09:50:14;28.25;24.75;12.50
27143;PMS1003;14672;50.250;8.312;2024-01-27T09:52:43;15.75;14.75;7.50
27143;PMS1003;14672;50.250;8.312;2024-01-27T09:55:09;19.25;17.75;6.50
27143;PMS1003;14672;50.250;8.312;2024-01-27T09:57:39;15.50;13.75;6.00
27143;PMS1003;14672;50.250;8.312;2024-01-27T10:00:08;12.25;12.25;6.00
27143;PMS1003;14672;50.250;8.312;2024-01-27T10:02:41;15.50;14.25;7.25
27143;PMS1003;14672;50.250;8.312;2024-01-27T10:05:10;15.25;14.25;6.75
27143;PMS1003;14672;50.250;8.312;2024-01-27T10:07:37;14.75;13.75;6.75
27143;PMS1003;14672;50.250;8.312;2024-01-27T10:10:05;15.50;15.25;6.75
27143;PMS1003;14672;50.250;8.312;2024-01-27T10:12:31;23.75;22.25;10.50
27143;PMS1003;14672;50.250;8.312;2024-01-27T10:14:59;27.75;25.00;11.50
27143;PMS1003;14672;50.250;8.312;2024-01-27T10:17:25;21.00;17.67;8.67
27143;PMS1003;14672;50.250;8.312;2024-01-27T10:20:01;22.00;17.75;8.25
27143;PMS1003;14672;50.250;8.312;2024-01-27T10:22:36;22.25;18.25;9.50
27143;PMS1003;14672;50.250;8.312;2024-01-27T10:25:06;22.25;21.25;8.75
27143;PMS1003;14672;50.250;8.312;2024-01-27T10:27:33;11.50;11.50;5.00
27143;PMS1003;14672;50.250;8.312;2024-01-27T10:29:59;15.25;14.00;5.25
27143;PMS1003;14672;50.250;8.312;2024-01-27T10:32:25;18.00;18.00;12.00
27143;PMS1003;14672;50.250;8.312;2024-01-27T10:37:30;23.25;20.25;8.75
27143;PMS1003;14672;50.250;8.312;2024-01-27T10:39:59;13.50;12.00;5.25
27143;PMS1003;14672;50.250;8.312;2024-01-27T10:42:36;14.25;13.25;5.00
27143;PMS1003;14672;50.250;8.312;2024-01-27T10:45:03;13.25;12.75;6.50
27143;PMS1003;14672;50.250;8.312;2024-01-27T10:47:32;16.00;15.00;6.50
27143;PMS1003;14672;50.250;8.312;2024-01-27T10:49:59;15.00;13.33;5.00
27143;PMS1003;14672;50.250;8.312;2024-01-27T10:52:30;14.50;12.50;6.25
27143;PMS1003;14672;50.250;8.312;2024-01-27T10:54:58;14.50;11.25;3.50
27143;PMS1003;14672;50.250;8.312;2024-01-27T10:57:31;12.75;12.75;6.00
27143;PMS1003;14672;50.250;8.312;2024-01-27T11:00:00;11.50;11.00;5.00
27143;PMS1003;14672;50.250;8.312;2024-01-27T11:02:32;12.50;9.75;3.00
27143;PMS1003;14672;50.250;8.312;2024-01-27T11:05:05;10.75;9.00;3.00
27143;PMS1003;14672;50.250;8.312;2024-01-27T11:07:33;13.75;11.50;3.50
27143;PMS1003;14672;50.250;8.312;2024-01-27T11:10:00;13.00;12.75;6.00
27143;PMS1003;14672;50.250;8.312;2024-01-27T11:12:26;14.25;14.25;6.00
27143;PMS1003;14672;50.250;8.312;2024-01-27T11:14:53;11.25;11.00;4.00
27143;PMS1003;14672;50.250;8.312;2024-01-27T11:17:19;11.75;11.75;5.50
27143;PMS1003;14672;50.250;8.312;2024-01-27T11:19:45;17.25;15.50;7.50
27143;PMS1003;14672;50.250;8.312;2024-01-27T11:27:41;17.25;14.00;3.00
27143;PMS1003;14672;50.250;8.312;2024-01-27T11:30:27;90.80;67.00;37.60
27143;PMS1003;14672;50.250;8.312;2024-01-27T11:33:00;106.75;81.50;47.00
27143;PMS1003;14672;50.250;8.312;2024-01-27T11:35:27;83.80;67.60;40.80
27143;PMS1003;14672;50.250;8.312;2024-01-27T11:37:53;142.00;113.25;63.75
27143;PMS1003;14672;50.250;8.312;2024-01-27T11:40:20;102.75;79.00;47.75
27143;PMS1003;14672;50.250;8.312;2024-01-27T11:43:04;47.00;40.75;21.75
27143;PMS1003;14672;50.250;8.312;2024-01-27T11:45:30;19.25;15.50;6.75
27143;PMS1003;14672;50.250;8.312;2024-01-27T11:47:57;18.00;15.00;6.00
27143;PMS1003;14672;50.250;8.312;2024-01-27T11:50:25;13.00;12.50;6.00
27143;PMS1003;14672;50.250;8.312;2024-01-27T11:52:50;22.00;20.67;10.00
27143;PMS1003;14672;50.250;8.312;2024-01-27T11:55:16;15.00;14.33;6.33
27143;PMS1003;14672;50.250;8.312;2024-01-27T11:57:44;59.50;51.50;29.50
27143;PMS1003;14672;50.250;8.312;2024-01-27T12:00:13;94.80;73.20;42.60
27143;PMS1003;14672;50.250;8.312;2024-01-27T12:02:39;22.25;18.75;7.50
27143;PMS1003;14672;50.250;8.312;2024-01-27T12:05:06;12.00;11.50;5.75
27143;PMS1003;14672;50.250;8.312;2024-01-27T12:07:33;43.50;39.50;21.25
27143;PMS1003;14672;50.250;8.312;2024-01-27T12:09:59;33.67;30.33;17.67
27143;PMS1003;14672;50.250;8.312;2024-01-27T12:12:25;37.67;33.33;18.67
27143;PMS1003;14672;50.250;8.312;2024-01-27T12:14:51;52.33;47.67;25.00
27143;PMS1003;14672;50.250;8.312;2024-01-27T12:17:17;39.75;33.75;19.00
27143;PMS1003;14672;50.250;8.312;2024-01-27T12:19:47;38.25;33.50;16.75
27143;PMS1003;14672;50.250;8.312;2024-01-27T12:22:22;48.00;43.25;23.25
27143;PMS1003;14672;50.250;8.312;2024-01-27T12:24:53;30.50;27.50;14.50
27143;PMS1003;14672;50.250;8.312;2024-01-27T12:27:23;34.25;26.50;11.00
27143;PMS1003;14672;50.250;8.312;2024-01-27T12:29:49;16.50;14.25;6.00
27143;PMS1003;14672;50.250;8.312;2024-01-27T12:32:15;17.25;15.25;7.00
27143;PMS1003;14672;50.250;8.312;2024-01-27T12:34:42;14.00;13.00;6.00
27143;PMS1003;14672;50.250;8.312;2024-01-27T12:37:11;19.00;16.50;7.25
27143;PMS1003;14672;50.250;8.312;2024-01-27T12:39:44;17.00;16.25;6.25
27143;PMS1003;14672;50.250;8.312;2024-01-27T12:42:10;11.00;10.50;4.50
27143;PMS1003;14672;50.250;8.312;2024-01-27T12:44:37;10.50;9.00;2.50
27143;PMS1003;14672;50.250;8.312;2024-01-27T12:47:04;11.50;11.50;5.50
27143;PMS1003;14672;50.250;8.312;2024-01-27T12:49:30;14.50;12.75;6.50
27143;PMS1003;14672;50.250;8.312;2024-01-27T12:51:56;11.33;10.33;3.67
27143;PMS1003;14672;50.250;8.312;2024-01-27T12:54:22;8.50;8.50;4.00
27143;PMS1003;14672;50.250;8.312;2024-01-27T12:56:48;11.33;9.00;3.00
27143;PMS1003;14672;50.250;8.312;2024-01-27T12:59:14;11.67;10.33;4.00
27143;PMS1003;14672;50.250;8.312;2024-01-27T13:01:40;13.75;11.25;4.00
27143;PMS1003;14672;50.250;8.312;2024-01-27T13:04:06;9.00;8.00;1.00
27143;PMS1003;14672;50.250;8.312;2024-01-27T13:06:32;8.33;8.33;4.67
27143;PMS1003;14672;50.250;8.312;2024-01-27T13:08:58;9.00;8.00;3.00
27143;PMS1003;14672;50.250;8.312;2024-01-27T13:11:24;10.67;9.33;4.00
27143;PMS1003;14672;50.250;8.312;2024-01-27T13:13:49;9.00;9.00;4.00
27143;PMS1003;14672;50.250;8.312;2024-01-27T13:16:15;9.00;8.33;4.00
27143;PMS1003;14672;50.250;8.312;2024-01-27T13:18:41;8.33;8.33;3.00
27143;PMS1003;14672;50.250;8.312;2024-01-27T13:21:10;9.75;9.50;4.00
27143;PMS1003;14672;50.250;8.312;2024-01-27T13:23:36;10.33;9.67;4.00
27143;PMS1003;14672;50.250;8.312;2024-01-27T13:26:01;8.33;7.33;3.67
27143;PMS1003;14672;50.250;8.312;2024-01-27T13:28:27;14.00;14.00;6.33
27143;PMS1003;14672;50.250;8.312;2024-01-27T13:30:53;11.00;9.00;3.00
27143;PMS1003;14672;50.250;8.312;2024-01-27T13:33:19;10.33;9.00;3.00
27143;PMS1003;14672;50.250;8.312;2024-01-27T13:35:44;7.00;7.00;3.00
27143;PMS1003;14672;50.250;8.312;2024-01-27T13:38:13;9.00;8.00;3.00
27143;PMS1003;14672;50.250;8.312;2024-01-27T13:40:39;12.00;10.75;4.00
27143;PMS1003;14672;50.250;8.312;2024-01-27T13:43:05;11.67;9.67;3.00
27143;PMS1003;14672;50.250;8.312;2024-01-27T13:45:31;11.33;9.67;4.00
27143;PMS1003;14672;50.250;8.312;2024-01-27T13:47:57;12.00;9.67;3.00
27143;PMS1003;14672;50.250;8.312;2024-01-27T13:50:23;8.75;8.75;3.00
27143;PMS1003;14672;50.250;8.312;2024-01-27T13:52:55;10.75;8.75;3.00
27143;PMS1003;14672;50.250;8.312;2024-01-27T13:55:21;10.00;9.00;4.00
27143;PMS1003;14672;50.250;8.312;2024-01-27T13:57:48;12.00;8.50;3.00
27143;PMS1003;14672;50.250;8.312;2024-01-27T14:00:15;12.75;8.00;1.50
27143;PMS1003;14672;50.250;8.312;2024-01-27T14:02:41;13.75;13.00;5.50
27143;PMS1003;14672;50.250;8.312;2024-01-27T14:05:07;9.00;9.00;3.00
27143;PMS1003;14672;50.250;8.312;2024-01-27T14:07:34;16.00;14.00;6.25